Time;durP1;ratioP1;P1;durP2;ratioP2;P2;SDS_P1;SDS_P2;PMS_P1;PMS_P2;Temp;Humidity;BMP_temperature;BMP_pressure;BME280_temperature;BME280_humidity;BME280_pressure;Samples;Min_cycle;Max_cycle;Signal;HPM_P1;HPM_P2
2021/04/09 00:01:46;;;;;;;15.57;6.43;;;5.40;69.60;;;;;;4785908;29;20042;-78
2021/04/09 00:04:14;;;;;;;8.03;4.87;;;5.50;69.60;;;;;;4812517;29;20057;-78
2021/04/09 00:06:41;;;;;;;11.27;5.60;;;5.50;69.60;;;;;;4816197;29;20050;-78
2021/04/09 00:09:11;;;;;;;11.80;7.17;;;5.40;69.50;;;;;;4784430;29;20057;-78
2021/04/09 00:11:39;;;;;;;13.57;7.13;;;5.40;69.60;;;;;;4783052;29;20073;-77
2021/04/09 00:14:07;;;;;;;19.60;7.97;;;5.40;69.70;;;;;;4802399;29;20050;-77
2021/04/09 00:16:34;;;;;;;13.90;7.90;;;5.40;69.90;;;;;;4786648;29;20529;-78
2021/04/09 00:19:00;;;;;;;13.73;7.23;;;5.40;70.00;;;;;;4803374;29;20073;-78
2021/04/09 00:21:27;;;;;;;12.17;7.93;;;5.40;70.10;;;;;;4799951;29;20034;-77
2021/04/09 00:23:54;;;;;;;9.57;5.87;;;5.40;70.10;;;;;;4796069;29;20046;-78
2021/04/09 00:26:20;;;;;;;10.87;7.17;;;5.30;70.10;;;;;;4816433;29;20054;-77
2021/04/09 00:28:47;;;;;;;17.43;10.97;;;5.30;70.20;;;;;;4777324;29;20058;-77
2021/04/09 00:31:13;;;;;;;10.90;6.97;;;5.30;70.30;;;;;;4805138;29;20046;-77
2021/04/09 00:33:39;;;;;;;16.10;9.27;;;5.30;70.30;;;;;;4781902;29;20085;-77
2021/04/09 00:36:06;;;;;;;11.50;7.63;;;5.30;70.50;;;;;;4763514;29;20055;-78
2021/04/09 00:38:33;;;;;;;11.33;6.83;;;5.20;70.60;;;;;;4791313;29;20078;-77
2021/04/09 00:40:59;;;;;;;10.67;7.77;;;5.10;70.80;;;;;;4785936;29;20046;-78
2021/04/09 00:43:26;;;;;;;12.00;7.20;;;5.10;71.00;;;;;;4789380;29;20130;-78
2021/04/09 00:45:52;;;;;;;16.07;7.63;;;5.10;71.10;;;;;;4800068;29;20063;-77
2021/04/09 00:48:19;;;;;;;9.03;5.60;;;5.10;71.20;;;;;;4799103;29;20062;-78
2021/04/09 00:50:45;;;;;;;10.20;6.03;;;5.10;71.20;;;;;;4802001;29;20063;-78
2021/04/09 00:53:14;;;;;;;13.27;6.17;;;5.00;71.20;;;;;;4814593;29;20042;-78
2021/04/09 00:55:41;;;;;;;10.93;6.40;;;5.10;71.40;;;;;;4785031;29;20451;-78
2021/04/09 00:58:08;;;;;;;12.77;8.57;;;5.00;71.40;;;;;;4813671;29;20057;-78
2021/04/09 01:00:35;;;;;;;13.03;7.37;;;5.00;71.50;;;;;;4771294;29;20046;-78
2021/04/09 01:03:02;;;;;;;12.23;6.57;;;5.00;71.50;;;;;;4800115;29;20049;-78
2021/04/09 01:05:32;;;;;;;8.20;5.30;;;5.00;71.50;;;;;;4797612;29;20509;-78
2021/04/09 01:08:03;;;;;;;7.87;5.20;;;5.00;71.60;;;;;;4812107;29;20050;-77
2021/04/09 01:10:29;;;;;;;11.90;6.80;;;5.00;71.60;;;;;;4798787;29;20101;-77
2021/04/09 01:12:56;;;;;;;13.90;7.97;;;5.00;71.60;;;;;;4782120;29;20066;-78
2021/04/09 01:15:23;;;;;;;10.40;7.07;;;5.00;71.80;;;;;;4763633;29;20069;-77
2021/04/09 01:18:08;;;;;;;8.70;5.23;;;5.00;71.90;;;;;;4802591;29;20069;-77
2021/04/09 01:21:12;;;;;;;12.23;6.00;;;5.00;71.90;;;;;;4801314;29;20054;-78
2021/04/09 01:23:48;;;;;;;8.03;4.33;;;5.00;72.00;;;;;;4787952;29;20050;-78
2021/04/09 01:26:39;;;;;;;10.27;7.40;;;5.00;71.90;;;;;;4785240;29;20049;-78
2021/04/09 01:29:24;;;;;;;9.60;6.60;;;4.90;72.10;;;;;;4793853;29;20055;-78
2021/04/09 01:32:00;;;;;;;12.17;6.83;;;4.90;72.10;;;;;;4813025;29;20075;-78
2021/04/09 01:34:36;;;;;;;12.87;7.33;;;4.90;72.40;;;;;;4814186;29;20046;-78
2021/04/09 01:37:14;;;;;;;10.90;7.30;;;4.90;72.50;;;;;;4796932;29;20301;-78
2021/04/09 01:39:48;;;;;;;12.60;7.43;;;4.90;72.60;;;;;;4814277;29;20506;-78
2021/04/09 01:42:16;;;;;;;12.67;7.47;;;4.80;72.60;;;;;;4811529;29;20414;-78
2021/04/09 01:44:56;;;;;;;11.07;6.83;;;4.90;72.70;;;;;;4798442;29;20058;-78
2021/04/09 01:47:24;;;;;;;11.00;6.43;;;4.90;72.80;;;;;;4813393;29;20061;-78
2021/04/09 01:49:57;;;;;;;11.17;7.67;;;4.90;72.80;;;;;;4776123;29;20051;-77
2021/04/09 01:52:26;;;;;;;14.00;8.38;;;4.90;73.00;;;;;;4780728;29;20038;-77
2021/04/09 01:54:55;;;;;;;10.93;6.73;;;5.00;73.10;;;;;;4814585;29;20050;-78
2021/04/09 01:57:23;;;;;;;13.97;7.47;;;5.00;73.00;;;;;;4792873;29;20058;-78
2021/04/09 01:59:50;;;;;;;10.70;6.73;;;5.00;73.10;;;;;;4790048;29;20046;-78
2021/04/09 02:02:18;;;;;;;12.23;6.50;;;5.00;73.10;;;;;;4810358;29;20061;-78
2021/04/09 02:04:46;;;;;;;12.07;7.50;;;5.00;73.00;;;;;;4805819;29;20505;-78
2021/04/09 02:07:18;;;;;;;14.43;8.27;;;5.00;73.10;;;;;;4784866;29;20050;-78
2021/04/09 02:09:46;;;;;;;11.13;6.53;;;5.00;73.10;;;;;;4810253;29;20054;-77
2021/04/09 02:12:15;;;;;;;12.90;7.20;;;5.00;73.20;;;;;;4811426;29;20050;-78
2021/04/09 02:14:42;;;;;;;15.27;8.13;;;5.00;73.50;;;;;;4798613;29;20045;-78
2021/04/09 02:17:10;;;;;;;13.00;7.67;;;5.00;73.50;;;;;;4799457;29;20038;-78
2021/04/09 02:19:41;;;;;;;13.87;8.00;;;5.00;73.60;;;;;;4793797;29;20070;-78
2021/04/09 02:22:10;;;;;;;13.27;8.10;;;4.90;73.60;;;;;;4774220;29;20115;-78
2021/04/09 02:24:37;;;;;;;12.37;7.70;;;5.00;73.80;;;;;;4803511;29;20059;-77
2021/04/09 02:27:05;;;;;;;14.03;7.77;;;4.90;73.90;;;;;;4799088;29;20045;-77
2021/04/09 02:29:32;;;;;;;13.13;8.73;;;4.90;74.00;;;;;;4787885;29;20048;-78
2021/04/09 02:31:59;;;;;;;13.43;8.80;;;4.90;74.20;;;;;;4813082;29;20486;-78
2021/04/09 02:34:26;;;;;;;15.77;8.27;;;4.90;74.20;;;;;;4813881;29;20062;-78
2021/04/09 02:36:53;;;;;;;13.13;7.33;;;4.90;74.20;;;;;;4791598;29;20082;-77
2021/04/09 02:39:24;;;;;;;9.77;6.40;;;4.90;74.30;;;;;;4814349;29;20069;-77
2021/04/09 02:41:58;;;;;;;12.33;6.90;;;4.90;74.30;;;;;;4811671;29;20066;-77
2021/04/09 02:44:24;;;;;;;14.67;9.20;;;4.90;74.40;;;;;;4811644;29;20051;-77
2021/04/09 02:47:05;;;;;;;12.33;8.57;;;4.90;74.70;;;;;;4787404;29;20046;-77
2021/04/09 02:49:38;;;;;;;14.03;7.37;;;4.90;74.70;;;;;;4811654;29;20051;-77
2021/04/09 02:52:20;;;;;;;12.87;6.30;;;4.90;74.80;;;;;;4796010;29;20051;-78
2021/04/09 02:54:58;;;;;;;15.30;8.50;;;4.90;75.40;;;;;;4797647;29;20053;-78
2021/04/09 02:57:27;;;;;;;15.70;8.40;;;4.90;75.00;;;;;;4800784;29;20050;-79
2021/04/09 02:59:56;;;;;;;12.73;7.63;;;4.90;75.00;;;;;;4812179;29;20058;-78
2021/04/09 03:02:23;;;;;;;14.40;8.77;;;4.90;75.60;;;;;;4782247;29;20050;-78
2021/04/09 03:04:51;;;;;;;19.23;9.50;;;4.90;75.20;;;;;;4798188;29;20050;-78
2021/04/09 03:07:20;;;;;;;17.93;11.00;;;5.00;75.30;;;;;;4798878;29;20053;-78
2021/04/09 03:09:47;;;;;;;19.00;11.43;;;5.00;75.40;;;;;;4789894;29;20403;-79
2021/04/09 03:12:20;;;;;;;20.93;10.97;;;5.00;75.80;;;;;;4798436;29;20061;-78
2021/04/09 03:14:50;;;;;;;20.70;9.63;;;5.00;75.80;;;;;;4798473;29;20046;-79
2021/04/09 03:17:33;;;;;;;18.23;10.47;;;5.10;75.80;;;;;;4816567;29;20078;-78
2021/04/09 03:20:00;;;;;;;22.60;10.80;;;5.10;75.90;;;;;;4786235;29;20327;-77
2021/04/09 03:22:27;;;;;;;21.20;12.70;;;5.10;76.00;;;;;;4806792;29;20393;-78
2021/04/09 03:24:54;;;;;;;18.90;10.30;;;5.10;76.00;;;;;;4805454;29;20065;-78
2021/04/09 03:27:20;;;;;;;20.27;11.20;;;5.10;76.00;;;;;;4802446;29;20050;-78
2021/04/09 03:29:47;;;;;;;22.77;12.47;;;5.20;76.10;;;;;;4787562;29;20509;-79
2021/04/09 03:32:13;;;;;;;17.80;10.07;;;5.10;76.10;;;;;;4771736;29;20042;-78
2021/04/09 03:34:40;;;;;;;18.83;9.63;;;5.20;76.30;;;;;;4816600;29;20475;-78
2021/04/09 03:37:07;;;;;;;18.07;10.60;;;5.20;76.30;;;;;;4799525;29;20038;-78
2021/04/09 03:39:34;;;;;;;21.53;11.93;;;5.20;76.30;;;;;;4799120;29;20082;-77
2021/04/09 03:42:02;;;;;;;17.77;10.63;;;5.20;76.50;;;;;;4762319;29;20050;-78
2021/04/09 03:44:29;;;;;;;15.70;8.80;;;5.20;76.50;;;;;;4803399;29;20478;-78
2021/04/09 03:46:55;;;;;;;14.67;9.10;;;5.20;76.50;;;;;;4786203;29;20038;-78
2021/04/09 03:49:22;;;;;;;19.73;10.20;;;5.20;76.40;;;;;;4771429;29;20520;-78
2021/04/09 03:51:50;;;;;;;16.93;9.63;;;5.20;76.50;;;;;;4797954;29;20046;-77
2021/04/09 03:54:16;;;;;;;18.60;10.77;;;5.20;76.60;;;;;;4804998;29;20046;-77
2021/04/09 03:56:43;;;;;;;15.87;9.57;;;5.20;76.60;;;;;;4816411;29;20046;-78
2021/04/09 03:59:09;;;;;;;16.57;9.53;;;5.20;76.70;;;;;;4817016;29;20054;-77
2021/04/09 04:01:36;;;;;;;16.90;9.33;;;5.20;76.80;;;;;;4800128;29;20055;-77
2021/04/09 04:04:03;;;;;;;15.33;8.13;;;5.10;76.90;;;;;;4799976;29;20422;-77
2021/04/09 04:06:30;;;;;;;16.60;8.60;;;5.10;77.00;;;;;;4799311;29;20058;-77
2021/04/09 04:08:56;;;;;;;19.07;9.93;;;5.10;77.00;;;;;;4784327;29;20051;-78
2021/04/09 04:11:23;;;;;;;20.27;10.27;;;5.10;77.20;;;;;;4769360;29;20039;-77
2021/04/09 04:13:49;;;;;;;21.50;13.53;;;5.10;77.40;;;;;;4785217;29;20054;-77
2021/04/09 04:16:16;;;;;;;17.50;10.80;;;5.00;77.30;;;;;;4783935;29;20046;-78
2021/04/09 04:18:43;;;;;;;16.13;9.73;;;5.10;77.30;;;;;;4815788;29;20066;-77
2021/04/09 04:21:09;;;;;;;17.23;9.80;;;5.00;77.30;;;;;;4785567;29;20039;-77
2021/04/09 04:23:36;;;;;;;17.43;9.77;;;5.10;77.40;;;;;;4768757;29;20042;-77
2021/04/09 04:26:03;;;;;;;11.60;7.37;;;5.10;77.60;;;;;;4770794;29;20556;-77
2021/04/09 04:28:31;;;;;;;17.40;9.23;;;5.00;77.40;;;;;;4793830;29;20468;-78
2021/04/09 04:30:59;;;;;;;15.40;9.47;;;5.00;77.60;;;;;;4814344;29;20058;-77
2021/04/09 04:33:25;;;;;;;14.97;8.80;;;5.00;77.60;;;;;;4795261;29;20058;-78
2021/04/09 04:35:52;;;;;;;14.77;9.27;;;5.00;77.80;;;;;;4815111;29;20426;-77
2021/04/09 04:38:20;;;;;;;16.23;9.07;;;5.00;77.90;;;;;;4816704;29;20046;-78
2021/04/09 04:40:48;;;;;;;12.37;7.60;;;5.00;78.10;;;;;;4801447;29;20050;-78
2021/04/09 04:43:16;;;;;;;13.47;7.50;;;5.00;78.00;;;;;;4792993;29;20045;-78
2021/04/09 04:45:42;;;;;;;14.10;8.20;;;4.90;78.00;;;;;;4798442;29;20038;-77
2021/04/09 04:48:12;;;;;;;10.83;7.10;;;5.00;78.20;;;;;;4771958;29;20071;-77
2021/04/09 04:50:38;;;;;;;15.00;8.57;;;4.90;78.20;;;;;;4783369;29;20074;-77
2021/04/09 04:53:05;;;;;;;17.00;10.07;;;5.00;78.30;;;;;;4784104;29;20442;-77
2021/04/09 04:55:32;;;;;;;13.77;8.53;;;4.90;78.40;;;;;;4815110;29;20379;-78
2021/04/09 04:58:02;;;;;;;12.33;7.43;;;4.90;78.40;;;;;;4783590;29;20046;-77
2021/04/09 05:00:29;;;;;;;16.90;9.00;;;4.90;78.40;;;;;;4816149;29;20058;-78
2021/04/09 05:02:55;;;;;;;9.80;6.10;;;4.90;78.50;;;;;;4784912;29;20046;-77
2021/04/09 05:05:22;;;;;;;14.67;8.30;;;4.90;78.50;;;;;;4758860;29;20053;-78
2021/04/09 05:07:48;;;;;;;11.30;7.17;;;4.90;78.50;;;;;;4800691;29;20416;-80
2021/04/09 05:10:15;;;;;;;14.07;8.07;;;4.90;78.60;;;;;;4800582;29;20149;-77
2021/04/09 05:12:41;;;;;;;12.87;7.67;;;4.90;78.60;;;;;;4772851;29;20042;-78
2021/04/09 05:15:08;;;;;;;15.57;7.53;;;4.90;78.60;;;;;;4788331;29;20054;-80
2021/04/09 05:17:35;;;;;;;15.37;8.27;;;4.90;78.70;;;;;;4781784;29;20520;-80
2021/04/09 05:20:05;;;;;;;13.17;8.23;;;4.90;78.80;;;;;;4786129;29;20058;-77
2021/04/09 05:22:31;;;;;;;13.40;8.43;;;4.90;78.80;;;;;;4790901;29;20053;-78
2021/04/09 05:24:58;;;;;;;11.87;7.87;;;4.90;78.90;;;;;;4788728;29;20046;-77
2021/04/09 05:27:24;;;;;;;11.33;6.60;;;4.90;79.00;;;;;;4800738;29;20043;-77
2021/04/09 05:29:51;;;;;;;13.80;8.07;;;4.90;79.00;;;;;;4814793;29;20061;-79
2021/04/09 05:32:18;;;;;;;14.60;9.27;;;5.00;79.00;;;;;;4801842;29;20053;-78
2021/04/09 05:34:44;;;;;;;13.63;9.20;;;5.00;79.00;;;;;;4800133;29;20058;-78
2021/04/09 05:37:11;;;;;;;11.57;6.47;;;5.00;79.00;;;;;;4773932;29;20051;-78
2021/04/09 05:39:37;;;;;;;14.33;7.60;;;5.00;79.00;;;;;;4800105;29;20053;-78
2021/04/09 05:42:05;;;;;;;13.37;7.20;;;5.10;79.60;;;;;;4785309;29;20061;-77
2021/04/09 05:44:34;;;;;;;16.10;9.03;;;5.10;79.10;;;;;;4814765;29;20065;-78
2021/04/09 05:47:02;;;;;;;13.00;8.10;;;5.20;79.10;;;;;;4797634;29;20058;-79
2021/04/09 05:49:32;;;;;;;12.30;8.40;;;5.20;79.20;;;;;;4788034;29;20057;-79
2021/04/09 05:51:58;;;;;;;13.83;9.30;;;5.20;79.10;;;;;;4760205;29;20047;-78
2021/04/09 05:54:25;;;;;;;11.83;7.83;;;5.30;79.20;;;;;;4791154;29;20047;-79
2021/04/09 05:56:51;;;;;;;11.37;7.40;;;5.40;79.20;;;;;;4780243;29;20031;-77
2021/04/09 05:59:18;;;;;;;14.30;8.27;;;5.40;79.00;;;;;;4797729;29;20051;-76
2021/04/09 06:01:45;;;;;;;11.83;7.40;;;5.50;79.00;;;;;;4779255;29;20053;-78
2021/04/09 06:04:11;;;;;;;18.63;10.53;;;5.50;78.90;;;;;;4768784;29;20054;-79
2021/04/09 06:06:38;;;;;;;13.43;8.73;;;5.60;78.90;;;;;;4778037;29;20054;-78
2021/04/09 06:09:05;;;;;;;13.47;8.17;;;5.70;78.80;;;;;;4814996;29;20070;-78
2021/04/09 06:11:31;;;;;;;12.47;8.03;;;5.80;78.70;;;;;;4767720;29;20050;-79
2021/04/09 06:13:58;;;;;;;15.70;7.80;;;5.90;78.50;;;;;;4806741;29;20051;-79
2021/04/09 06:16:29;;;;;;;12.23;8.43;;;6.00;78.40;;;;;;4800270;29;20050;-79
2021/04/09 06:19:06;;;;;;;14.93;8.83;;;6.10;78.10;;;;;;5109008;27;20112;-79
2021/04/09 06:21:32;;;;;;;11.33;7.20;;;6.30;77.80;;;;;;5056225;28;20051;-79
2021/04/09 06:23:59;;;;;;;12.93;7.37;;;6.40;77.50;;;;;;5078165;28;20036;-77
2021/04/09 06:26:26;;;;;;;13.93;7.57;;;6.50;77.20;;;;;;5069600;28;20043;-79
2021/04/09 06:28:54;;;;;;;10.90;6.93;;;6.70;77.00;;;;;;5057425;28;20035;-80
2021/04/09 06:31:24;;;;;;;13.03;7.67;;;6.90;76.80;;;;;;5068655;28;20047;-79
2021/04/09 06:33:50;;;;;;;12.23;6.73;;;7.00;76.30;;;;;;5057061;28;20046;-79
2021/04/09 06:36:20;;;;;;;15.93;8.73;;;7.20;75.80;;;;;;5050542;28;20050;-77
2021/04/09 06:38:46;;;;;;;15.53;8.03;;;7.40;75.30;;;;;;5077042;28;20040;-80
2021/04/09 06:41:13;;;;;;;14.10;8.43;;;7.50;75.00;;;;;;5087969;28;20059;-79
2021/04/09 06:43:40;;;;;;;20.45;9.65;;;7.60;74.40;;;;;;5087719;28;20048;-81
2021/04/09 06:46:08;;;;;;;15.50;8.90;;;7.60;73.90;;;;;;5051294;28;20478;-81
2021/04/09 06:48:34;;;;;;;15.35;8.90;;;7.60;73.90;;;;;;5091566;28;20031;-81
2021/04/09 06:51:02;;;;;;;9.82;6.68;;;7.70;73.80;;;;;;5069657;28;20062;-80
2021/04/09 06:53:30;;;;;;;12.02;7.57;;;7.80;73.80;;;;;;5084562;28;20433;-79
2021/04/09 06:55:57;;;;;;;14.80;7.95;;;7.80;73.50;;;;;;5094175;28;20042;-79
2021/04/09 06:58:24;;;;;;;14.82;8.63;;;7.90;73.60;;;;;;5059446;28;20051;-80
2021/04/09 07:00:52;;;;;;;15.65;8.00;;;8.00;73.50;;;;;;5091053;28;20036;-78
2021/04/09 07:03:19;;;;;;;9.43;7.35;;;8.10;73.40;;;;;;5095089;28;20603;-78
2021/04/09 07:05:48;;;;;;;11.48;7.30;;;8.20;73.10;;;;;;5106630;28;20054;-78
2021/04/09 07:08:14;;;;;;;11.68;7.45;;;8.20;73.00;;;;;;5085631;28;20047;-78
2021/04/09 07:10:42;;;;;;;15.63;8.05;;;8.30;72.90;;;;;;5087653;28;20044;-78
2021/04/09 07:13:12;;;;;;;14.40;7.38;;;8.30;73.00;;;;;;5084644;28;20516;-81
2021/04/09 07:15:43;;;;;;;11.32;7.35;;;8.20;72.40;;;;;;5053933;28;20497;-81
2021/04/09 07:18:13;;;;;;;14.20;7.97;;;8.30;72.40;;;;;;5050598;28;20047;-79
2021/04/09 07:20:39;;;;;;;12.23;7.55;;;8.20;72.40;;;;;;5106618;28;20047;-79
2021/04/09 07:23:08;;;;;;;16.75;7.95;;;8.20;72.60;;;;;;5050460;28;20505;-81
2021/04/09 07:25:45;;;;;;;11.40;7.10;;;8.30;72.60;;;;;;5087709;28;20043;-79
2021/04/09 07:28:17;;;;;;;12.80;8.23;;;8.30;72.50;;;;;;5084288;28;20054;-80
2021/04/09 07:30:50;;;;;;;11.68;7.80;;;8.40;72.30;;;;;;5053704;28;20040;-79
2021/04/09 07:33:18;;;;;;;9.70;7.40;;;8.40;72.30;;;;;;5070441;28;20063;-77
2021/04/09 07:35:51;;;;;;;10.85;6.63;;;8.60;72.40;;;;;;5084555;28;20048;-78
2021/04/09 07:38:26;;;;;;;13.38;7.72;;;8.80;72.10;;;;;;5080145;28;20048;-78
2021/04/09 07:40:58;;;;;;;12.13;6.95;;;9.00;71.50;;;;;;5070749;28;20051;-79
2021/04/09 07:43:28;;;;;;;11.27;7.22;;;9.00;71.10;;;;;;5087062;28;20047;-79
2021/04/09 07:45:58;;;;;;;12.75;7.97;;;9.10;70.70;;;;;;5067984;28;20375;-78
2021/04/09 07:48:35;;;;;;;16.15;7.43;;;9.20;70.70;;;;;;5087941;28;20494;-79
2021/04/09 07:51:04;;;;;;;12.13;6.18;;;9.40;70.90;;;;;;5087999;28;20055;-79
2021/04/09 07:53:31;;;;;;;11.13;5.97;;;9.60;70.80;;;;;;5090601;28;20040;-79
2021/04/09 07:56:12;;;;;;;8.05;5.82;;;9.70;70.30;;;;;;5070649;28;20064;-78
2021/04/09 07:58:41;;;;;;;12.40;7.45;;;9.90;70.20;;;;;;5098730;28;20044;-79
2021/04/09 08:01:24;;;;;;;10.38;6.70;;;10.10;69.90;;;;;;5081896;28;20390;-79
2021/04/09 08:03:52;;;;;;;10.27;7.00;;;10.30;69.40;;;;;;5075891;28;20408;-79
2021/04/09 08:06:21;;;;;;;10.05;6.88;;;10.40;68.90;;;;;;5068257;28;20043;-79
2021/04/09 08:08:48;;;;;;;11.32;6.10;;;10.50;68.60;;;;;;5078652;28;20040;-79
2021/04/09 08:11:42;;;;;;;8.65;5.63;;;10.50;68.10;;;;;;5075380;28;20036;-79
2021/04/09 08:14:12;;;;;;;;;;;10.50;68.30;;;;;;5039447;28;20052;-79
2021/04/09 08:16:45;;;;;;;8.23;5.60;;;10.50;68.40;;;;;;5070205;28;19916;-79
2021/04/09 08:19:16;;;;;;;;;;;10.60;68.90;;;;;;5064118;28;20039;-79
2021/04/09 08:21:52;;;;;;;11.82;6.63;;;10.70;68.30;;;;;;5088950;28;19919;-79
2021/04/09 08:24:21;;;;;;;11.77;6.82;;;10.70;68.10;;;;;;5089652;28;20047;-79
2021/04/09 08:26:49;;;;;;;9.75;6.47;;;10.70;68.00;;;;;;5093704;28;20032;-79
2021/04/09 08:29:20;;;;;;;10.77;6.18;;;10.70;68.00;;;;;;5078190;28;20055;-79
2021/04/09 08:31:47;;;;;;;11.97;6.60;;;10.70;68.20;;;;;;5088160;28;20051;-79
2021/04/09 08:34:19;;;;;;;9.73;5.68;;;10.70;68.30;;;;;;5072889;28;20043;-79
2021/04/09 08:36:47;;;;;;;9.43;6.40;;;10.80;68.30;;;;;;5071988;28;20039;-78
2021/04/09 08:39:17;;;;;;;10.82;5.82;;;10.90;68.20;;;;;;5074490;28;20052;-80
2021/04/09 08:41:45;;;;;;;8.55;5.22;;;11.00;67.90;;;;;;5083935;28;20056;-81
2021/04/09 08:44:13;;;;;;;13.13;6.05;;;11.20;67.90;;;;;;5071510;28;20044;-80
2021/04/09 08:46:41;;;;;;;13.73;7.00;;;11.30;67.40;;;;;;5092058;28;20039;-79
2021/04/09 08:49:11;;;;;;;9.93;6.63;;;11.50;67.00;;;;;;5090034;28;20054;-81
2021/04/09 08:51:41;;;;;;;10.73;6.10;;;11.50;66.90;;;;;;5084302;28;20032;-79
2021/04/09 08:54:31;;;;;;;8.60;5.55;;;11.60;66.60;;;;;;5071656;28;20052;-79
2021/04/09 08:56:59;;;;;;;8.60;6.03;;;11.80;66.50;;;;;;5072565;28;20063;-80
2021/04/09 08:59:44;;;;;;;13.65;7.18;;;11.90;66.30;;;;;;5072883;28;20055;-79
2021/04/09 09:02:25;;;;;;;8.60;6.40;;;12.00;65.60;;;;;;5090008;28;20047;-80
2021/04/09 09:04:58;;;;;;;9.73;5.18;;;12.20;65.50;;;;;;5053445;28;20036;-85
2021/04/09 09:07:43;;;;;;;11.05;6.28;;;12.40;65.40;;;;;;5090627;28;20032;-81
2021/04/09 09:10:22;;;;;;;8.13;5.60;;;12.70;64.60;;;;;;5051299;28;20043;-82
2021/04/09 09:13:15;;;;;;;9.27;5.82;;;12.80;64.10;;;;;;5085117;28;20031;-81
2021/04/09 09:15:41;;;;;;;10.07;5.47;;;12.90;63.40;;;;;;5074712;28;20488;-80
2021/04/09 09:18:25;;;;;;;9.13;5.60;;;12.90;63.50;;;;;;5084661;28;20040;-81
2021/04/09 09:21:23;;;;;;;6.70;4.80;;;13.00;63.60;;;;;;5082976;28;20039;-79
2021/04/09 09:23:57;;;;;;;8.68;4.93;;;13.20;63.00;;;;;;5052045;28;20526;-78
2021/04/09 09:26:32;;;;;;;7.40;5.47;;;13.30;62.80;;;;;;5075252;28;20385;-80
2021/04/09 09:29:17;;;;;;;7.70;4.93;;;13.40;62.80;;;;;;5082207;28;20040;-79
2021/04/09 09:31:47;;;;;;;10.32;5.70;;;13.50;62.50;;;;;;5063903;28;20450;-79
2021/04/09 09:34:26;;;;;;;7.97;4.85;;;13.50;61.80;;;;;;5083797;28;20039;-81
2021/04/09 09:37:14;;;;;;;12.73;5.88;;;13.50;61.70;;;;;;5051727;28;20033;-82
2021/04/09 09:39:49;;;;;;;8.68;5.00;;;13.70;61.50;;;;;;5069641;28;20036;-78
2021/04/09 09:42:27;;;;;;;8.02;5.75;;;14.00;61.00;;;;;;5086975;28;20059;-80
2021/04/09 09:44:58;;;;;;;7.28;5.40;;;14.10;60.10;;;;;;5084114;28;20526;-81
2021/04/09 09:47:33;;;;;;;6.22;5.40;;;14.20;59.90;;;;;;5081244;28;20048;-80
2021/04/09 09:50:03;;;;;;;8.45;5.25;;;14.20;59.70;;;;;;5070714;28;20450;-80
2021/04/09 09:52:40;;;;;;;8.60;4.90;;;14.20;59.50;;;;;;5066725;28;20058;-79
2021/04/09 09:55:23;;;;;;;8.75;4.45;;;14.30;59.50;;;;;;5087863;28;20032;-80
2021/04/09 09:58:19;;;;;;;8.20;4.18;;;14.40;59.20;;;;;;5082902;28;20490;-78
2021/04/09 10:00:58;;;;;;;9.43;4.75;;;14.60;58.90;;;;;;5054532;28;20067;-82
2021/04/09 10:03:35;;;;;;;7.38;3.80;;;14.90;57.80;;;;;;5063674;28;20474;-82
2021/04/09 10:06:12;;;;;;;5.68;2.78;;;15.10;57.40;;;;;;5066359;28;20054;-82
2021/04/09 10:08:43;;;;;;;4.75;2.50;;;15.20;56.70;;;;;;5073547;28;20046;-82
2021/04/09 10:11:21;;;;;;;4.60;2.70;;;15.30;56.00;;;;;;5086878;28;20044;-81
2021/04/09 10:13:49;;;;;;;6.10;3.67;;;15.40;55.40;;;;;;5085028;28;20036;-82
2021/04/09 10:16:25;;;;;;;6.55;3.42;;;15.40;54.80;;;;;;5055460;28;20040;-81
2021/04/09 10:18:54;;;;;;;7.00;3.10;;;15.30;54.50;;;;;;5075203;28;20052;-82
2021/04/09 10:21:27;;;;;;;20.92;5.03;;;15.30;54.30;;;;;;5056031;28;20509;-82
2021/04/09 10:24:17;;;;;;;7.47;3.03;;;15.20;54.70;;;;;;5085021;28;20036;-82
2021/04/09 10:26:59;;;;;;;7.35;3.45;;;15.10;55.10;;;;;;5072387;28;20051;-82
2021/04/09 10:29:33;;;;;;;8.18;4.05;;;15.10;55.50;;;;;;5040091;28;20048;-82
2021/04/09 10:32:01;;;;;;;7.45;3.13;;;15.20;55.80;;;;;;5088340;28;20506;-82
2021/04/09 10:34:33;;;;;;;5.35;3.47;;;15.20;55.70;;;;;;5049215;28;20056;-82
2021/04/09 10:37:01;;;;;;;6.65;4.30;;;15.20;55.00;;;;;;5051995;28;20064;-83
2021/04/09 10:39:29;;;;;;;6.43;3.28;;;15.10;55.00;;;;;;5084785;28;20051;-82
2021/04/09 10:41:57;;;;;;;5.03;3.70;;;15.00;55.70;;;;;;5056157;28;20043;-82
2021/04/09 10:44:28;;;;;;;4.38;2.97;;;15.10;55.60;;;;;;5055360;28;20581;-82
2021/04/09 10:47:00;;;;;;;5.32;3.45;;;15.20;55.70;;;;;;5053029;28;20055;-82
2021/04/09 10:49:33;;;;;;;5.43;3.33;;;15.40;55.20;;;;;;5070777;28;20043;-83
2021/04/09 10:52:04;;;;;;;6.65;2.90;;;15.50;55.00;;;;;;5086661;28;20051;-83
2021/04/09 10:54:36;;;;;;;6.20;3.05;;;15.50;54.60;;;;;;5069655;28;20043;-83
2021/04/09 10:57:09;;;;;;;4.78;2.58;;;15.70;55.20;;;;;;5050586;28;20061;-83
2021/04/09 10:59:37;;;;;;;;;;;16.10;54.10;;;;;;5070013;28;20119;-83
2021/04/09 11:02:05;;;;;;;8.43;3.42;;;16.70;53.90;;;;;;5083382;28;19912;-84
2021/04/09 11:04:33;;;;;;;5.85;2.72;;;17.20;51.70;;;;;;5054118;28;20031;-83
2021/04/09 11:07:02;;;;;;;6.93;3.05;;;17.60;51.10;;;;;;5071796;28;20036;-84
2021/04/09 11:09:44;;;;;;;3.10;2.28;;;17.90;50.00;;;;;;5088828;28;20045;-83
2021/04/09 11:12:28;;;;;;;5.47;2.57;;;18.20;49.20;;;;;;5084150;28;20048;-83
2021/04/09 11:15:04;;;;;;;2.50;1.52;;;18.50;47.90;;;;;;5031148;28;20056;-83
2021/04/09 11:17:30;;;;;;;5.97;2.17;;;18.50;47.60;;;;;;5068113;28;20055;-83
2021/04/09 11:19:59;;;;;;;4.43;1.83;;;18.30;47.20;;;;;;5054120;28;20035;-82
2021/04/09 11:22:28;;;;;;;3.38;1.40;;;18.30;47.90;;;;;;5056477;28;20040;-83
2021/04/09 11:25:01;;;;;;;3.33;1.30;;;18.30;47.20;;;;;;5077353;28;20040;-83
2021/04/09 11:27:32;;;;;;;2.60;1.10;;;18.30;46.80;;;;;;5061172;28;20035;-83
2021/04/09 11:30:22;;;;;;;2.47;0.80;;;18.40;46.20;;;;;;5070585;28;20046;-84
2021/04/09 11:32:52;;;;;;;1.60;0.70;;;18.50;45.00;;;;;;5069553;28;20528;-84
2021/04/09 11:35:21;;;;;;;2.22;1.00;;;18.50;44.00;;;;;;5077296;28;20047;-83
2021/04/09 11:37:55;;;;;;;1.83;0.77;;;18.60;44.60;;;;;;5079386;28;20261;-83
2021/04/09 11:40:34;;;;;;;6.35;1.38;;;18.60;44.30;;;;;;5076680;28;20036;-83
2021/04/09 11:43:00;;;;;;;3.25;1.25;;;18.40;44.40;;;;;;5087859;28;20046;-82
2021/04/09 11:45:57;;;;;;;2.00;1.15;;;18.70;44.60;;;;;;5038009;28;20032;-83
2021/04/09 11:48:33;;;;;;;3.45;1.13;;;19.10;43.60;;;;;;5087494;28;20075;-82
2021/04/09 11:51:22;;;;;;;6.20;1.25;;;18.90;43.50;;;;;;5074358;28;20036;-82
2021/04/09 11:54:03;;;;;;;3.80;0.90;;;18.70;43.60;;;;;;5072893;28;20040;-82
2021/04/09 11:56:58;;;;;;;2.05;0.85;;;19.00;43.70;;;;;;5090105;28;20040;-82
2021/04/09 11:59:26;;;;;;;1.83;0.70;;;19.40;42.60;;;;;;5074699;28;20505;-82
2021/04/09 12:01:53;;;;;;;3.03;0.90;;;19.70;43.00;;;;;;5055538;28;20040;-83
2021/04/09 12:04:35;;;;;;;2.55;0.70;;;20.30;41.80;;;;;;5073001;28;20394;-82
2021/04/09 12:07:20;;;;;;;1.88;0.80;;;20.00;41.30;;;;;;5071956;28;20047;-82
2021/04/09 12:09:58;;;;;;;2.25;0.80;;;20.00;42.30;;;;;;5071805;28;20048;-83
2021/04/09 12:12:25;;;;;;;2.63;0.90;;;20.40;40.90;;;;;;5037634;28;20036;-82
2021/04/09 12:14:57;;;;;;;2.78;0.70;;;20.60;40.50;;;;;;5087570;28;20032;-82
2021/04/09 12:17:25;;;;;;;1.75;0.68;;;21.10;39.90;;;;;;5075127;28;20043;-83
2021/04/09 12:19:54;;;;;;;2.80;0.85;;;21.40;37.60;;;;;;5088282;28;20048;-82
2021/04/09 12:22:21;;;;;;;1.60;0.70;;;21.50;38.30;;;;;;5069348;28;20051;-82
2021/04/09 12:24:48;;;;;;;2.08;0.70;;;21.50;37.60;;;;;;5054058;28;20086;-83
2021/04/09 12:27:19;;;;;;;3.28;0.80;;;22.00;37.70;;;;;;5067180;28;20398;-82
2021/04/09 12:29:46;;;;;;;3.00;1.17;;;22.30;37.40;;;;;;5072253;28;20047;-82
2021/04/09 12:32:13;;;;;;;1.55;0.80;;;22.10;36.50;;;;;;5087120;28;20056;-82
2021/04/09 12:34:39;;;;;;;3.00;0.90;;;21.80;37.40;;;;;;5074515;28;20067;-82
2021/04/09 12:37:06;;;;;;;1.35;0.73;;;21.70;37.30;;;;;;5072830;28;20036;-82
2021/04/09 12:39:32;;;;;;;3.28;0.82;;;21.50;38.10;;;;;;5085528;28;20413;-82
2021/04/09 12:42:01;;;;;;;1.70;0.80;;;21.30;37.60;;;;;;5070235;28;20052;-83
2021/04/09 12:44:31;;;;;;;2.35;0.95;;;20.90;37.10;;;;;;5053908;28;20477;-82
2021/04/09 12:46:57;;;;;;;2.33;0.65;;;20.60;38.00;;;;;;5037147;28;20040;-82
2021/04/09 12:49:24;;;;;;;2.33;0.80;;;20.30;38.00;;;;;;5086123;28;20024;-82
2021/04/09 12:51:51;;;;;;;5.18;0.70;;;20.10;38.60;;;;;;5051083;28;20032;-82
2021/04/09 12:54:27;;;;;;;1.85;0.90;;;20.50;38.80;;;;;;5085337;28;20040;-83
2021/04/09 12:56:54;;;;;;;3.90;0.73;;;21.00;37.80;;;;;;5079051;28;20051;-83
2021/04/09 12:59:22;;;;;;;1.45;0.73;;;21.00;37.00;;;;;;5069355;28;20048;-83
2021/04/09 13:01:49;;;;;;;3.38;0.85;;;20.80;36.90;;;;;;5085730;27;20047;-82
2021/04/09 13:04:16;;;;;;;1.10;0.68;;;20.40;37.50;;;;;;5052851;28;20043;-82
2021/04/09 13:06:43;;;;;;;1.98;0.80;;;19.90;38.60;;;;;;5090555;28;20036;-83